Zamboanga, Philippines
Current Conditions -  °F | °C
As of 8:00 PM on Monday 24 Nov 2014 (Local Time) from RPMZ Reporting Station
Scattered Clouds Scattered Clouds  
Wind Chill: 82°   Ceiling: Unl
Heat Index: 91°   Visibility: 6mi
Dew Point: 77°   Wind: 2mph
Humidity: 84%   Direction: 270°W
Pressure: 29.83"   Gusts: NA
Location:  6.92°N, 122.08°E
Report Text: RPMZ 241200Z 27002KT 9999 FEW018 SCT300 28/25 Q1010 RMK A2984
Loading
Personal Weather Stations






























Interactive Weather Map New forecast layout! Learn more

10-Day Weather Forecast

Advertisements
Track Severe Weather on mobile